createdAt,value
2018-03-16T00:00:04.854Z,36.18
2018-03-16T00:01:08.975Z,36.23
2018-03-16T00:02:13.157Z,36.25
2018-03-16T00:03:17.309Z,36.31
2018-03-16T00:04:21.727Z,36.32
2018-03-16T00:05:25.801Z,36.31
2018-03-16T00:06:29.903Z,36.37
2018-03-16T00:07:34.014Z,36.38
2018-03-16T00:08:38.108Z,36.41
2018-03-16T00:09:42.199Z,36.41
2018-03-16T00:10:46.664Z,36.40
2018-03-16T00:11:50.779Z,36.44
2018-03-16T00:12:54.947Z,36.42
2018-03-16T00:13:59.068Z,36.47
2018-03-16T00:15:03.246Z,36.49
2018-03-16T00:16:07.418Z,36.48
2018-03-16T00:17:11.794Z,36.46
2018-03-16T00:18:15.955Z,36.49
2018-03-16T00:19:20.014Z,36.55
2018-03-16T00:20:24.216Z,36.59
2018-03-16T00:21:28.231Z,36.60
2018-03-16T00:22:32.360Z,36.56
2018-03-16T00:23:36.515Z,36.57
2018-03-16T00:24:40.626Z,36.54
2018-03-16T00:25:44.770Z,36.56
2018-03-16T00:26:49.004Z,36.60
2018-03-16T00:27:53.140Z,36.61
2018-03-16T00:28:57.358Z,36.58
2018-03-16T00:30:01.943Z,36.60
2018-03-16T00:31:06.268Z,36.59
2018-03-16T00:32:10.573Z,36.59
2018-03-16T00:33:14.822Z,36.60
2018-03-16T00:34:18.977Z,36.56
2018-03-16T00:35:23.252Z,36.55
2018-03-16T00:36:28.015Z,36.57
2018-03-16T00:37:32.280Z,36.59
2018-03-16T00:38:36.476Z,36.64
2018-03-16T00:39:40.647Z,36.70
2018-03-16T00:40:44.955Z,36.66
2018-03-16T00:41:49.223Z,36.65
2018-03-16T00:42:53.928Z,36.66
2018-03-16T00:43:58.078Z,36.69
2018-03-16T00:45:02.235Z,36.71
2018-03-16T00:46:06.431Z,36.74
2018-03-16T00:47:10.615Z,36.76
2018-03-16T00:48:14.799Z,36.72
2018-03-16T00:49:19.499Z,36.72
2018-03-16T00:50:23.719Z,36.75
2018-03-16T00:51:27.961Z,36.70
2018-03-16T00:52:32.153Z,36.70
2018-03-16T00:53:36.295Z,36.71
2018-03-16T00:54:40.451Z,36.76
2018-03-16T00:55:44.951Z,36.83
2018-03-16T00:56:49.298Z,36.84
2018-03-16T00:57:53.555Z,36.82
2018-03-16T00:58:57.770Z,36.87
2018-03-16T01:00:02.076Z,36.88
2018-03-16T01:01:06.297Z,36.82
2018-03-16T01:02:10.915Z,36.87
2018-03-16T01:03:15.202Z,36.90
2018-03-16T01:04:19.725Z,36.91
2018-03-16T01:05:24.108Z,36.99
2018-03-16T01:06:28.440Z,37.01
2018-03-16T01:07:32.589Z,36.97
2018-03-16T01:08:37.229Z,37.05
2018-03-16T01:09:41.412Z,37.03
2018-03-16T01:10:45.652Z,37.13
2018-03-16T01:11:50.003Z,37.15
2018-03-16T01:12:54.451Z,37.14
2018-03-16T01:13:58.699Z,37.22
2018-03-16T01:15:03.528Z,37.21
2018-03-16T01:16:08.014Z,37.23
2018-03-16T01:17:12.362Z,37.36
2018-03-16T01:18:16.659Z,37.32
2018-03-16T01:19:20.681Z,37.31
2018-03-16T01:20:26.178Z,37.33
2018-03-16T01:21:30.490Z,37.40
2018-03-16T01:22:34.750Z,37.45
2018-03-16T01:23:39.071Z,37.53
2018-03-16T01:24:43.553Z,37.56
2018-03-16T01:25:47.754Z,37.47
2018-03-16T01:26:52.097Z,37.50
2018-03-16T01:27:56.810Z,37.57
2018-03-16T01:29:00.987Z,37.64
2018-03-16T01:30:05.540Z,37.64
2018-03-16T01:31:09.755Z,37.65
2018-03-16T01:32:14.145Z,37.66
2018-03-16T01:33:18.490Z,37.67
2018-03-16T01:34:23.220Z,37.68
2018-03-16T01:35:27.738Z,37.74
2018-03-16T01:36:32.136Z,37.77
2018-03-16T01:37:36.465Z,37.82
2018-03-16T01:38:40.760Z,37.74
2018-03-16T01:39:45.188Z,37.78
2018-03-16T01:40:49.820Z,37.76
2018-03-16T01:41:54.217Z,37.82
2018-03-16T01:42:58.403Z,37.80
2018-03-16T01:44:02.582Z,37.85
2018-03-16T01:45:07.126Z,37.85
2018-03-16T01:46:11.656Z,37.83
2018-03-16T01:47:16.443Z,37.87
2018-03-16T01:48:20.522Z,37.92
2018-03-16T01:49:25.163Z,37.92
2018-03-16T01:50:29.559Z,37.97
2018-03-16T01:51:33.836Z,38.01
2018-03-16T01:52:38.253Z,38.03
2018-03-16T01:53:43.035Z,37.94
2018-03-16T01:54:47.192Z,37.95
2018-03-16T01:55:51.582Z,37.95
2018-03-16T01:56:55.773Z,37.88
2018-03-16T01:58:00.058Z,37.97
2018-03-16T01:59:04.482Z,38.01
2018-03-16T02:00:09.038Z,38.17
2018-03-16T02:01:13.439Z,38.21
2018-03-16T02:02:17.728Z,38.20
2018-03-16T02:03:22.097Z,38.23
2018-03-16T02:04:26.593Z,38.20
2018-03-16T02:05:30.847Z,38.25
2018-03-16T02:06:35.755Z,38.27
2018-03-16T02:07:39.960Z,38.27
2018-03-16T02:08:44.091Z,38.28
2018-03-16T02:09:48.348Z,38.27
2018-03-16T02:10:52.875Z,38.28
2018-03-16T02:11:57.316Z,38.25
2018-03-16T02:13:01.767Z,38.19
2018-03-16T02:14:06.149Z,38.22
2018-03-16T02:15:10.886Z,38.23
2018-03-16T02:16:15.305Z,38.25
2018-03-16T02:17:19.882Z,38.24
2018-03-16T02:18:24.514Z,38.26
2018-03-16T02:19:29.314Z,38.14
2018-03-16T02:20:33.574Z,38.15
2018-03-16T02:21:37.965Z,38.22
2018-03-16T02:22:42.296Z,38.17
2018-03-16T02:23:46.698Z,38.15
2018-03-16T02:24:50.797Z,38.20
2018-03-16T02:25:55.294Z,38.22
2018-03-16T02:26:59.570Z,38.19
2018-03-16T02:28:03.924Z,38.12
2018-03-16T02:29:08.083Z,38.15
2018-03-16T02:30:13.645Z,38.20
2018-03-16T02:31:17.871Z,38.38
2018-03-16T02:32:22.724Z,38.21
2018-03-16T02:33:27.023Z,38.18
2018-03-16T02:34:31.351Z,38.14
2018-03-16T02:35:35.492Z,38.08
2018-03-16T02:36:39.474Z,38.20
2018-03-16T02:37:43.526Z,38.19
2018-03-16T02:38:48.408Z,38.19
2018-03-16T02:39:52.871Z,38.17
2018-03-16T02:40:57.008Z,38.21
2018-03-16T02:42:00.942Z,38.23
2018-03-16T02:43:05.066Z,38.22
2018-03-16T02:44:09.613Z,38.22
2018-03-16T02:45:14.183Z,38.19
2018-03-16T02:46:18.365Z,38.20
2018-03-16T02:47:22.693Z,38.23
2018-03-16T02:48:26.922Z,38.23
2018-03-16T02:49:31.041Z,38.30
2018-03-16T02:50:35.764Z,38.34
2018-03-16T02:51:40.470Z,38.29
2018-03-16T02:52:44.842Z,38.26
2018-03-16T02:53:49.274Z,38.33
2018-03-16T02:54:53.367Z,38.30
2018-03-16T02:55:57.584Z,38.32
2018-03-16T02:57:01.690Z,38.35
2018-03-16T02:58:06.486Z,38.38
2018-03-16T02:59:11.098Z,38.48
2018-03-16T03:00:15.146Z,38.33
2018-03-16T03:01:19.322Z,38.38
2018-03-16T03:02:23.660Z,38.46
2018-03-16T03:03:27.530Z,38.50
2018-03-16T03:04:32.145Z,38.50
2018-03-16T03:05:36.157Z,38.46
2018-03-16T03:06:40.251Z,38.48
2018-03-16T03:07:44.050Z,38.50
2018-03-16T03:08:48.148Z,38.46
2018-03-16T03:09:51.999Z,38.53
2018-03-16T03:10:56.390Z,38.53
2018-03-16T03:12:00.349Z,38.49
2018-03-16T03:13:04.762Z,38.54
2018-03-16T03:14:08.848Z,38.58
2018-03-16T03:15:13.248Z,38.66
2018-03-16T03:16:17.443Z,38.71
2018-03-16T03:17:22.048Z,38.72
2018-03-16T03:18:26.284Z,38.67
2018-03-16T03:19:30.359Z,38.63
2018-03-16T03:20:34.364Z,38.69
2018-03-16T03:21:38.604Z,38.66
2018-03-16T03:22:42.721Z,38.79
2018-03-16T03:23:47.475Z,38.78
2018-03-16T03:24:51.452Z,38.75
2018-03-16T03:25:55.435Z,38.79
2018-03-16T03:26:59.465Z,38.79
2018-03-16T03:28:03.253Z,38.80
2018-03-16T03:29:07.218Z,38.83
2018-03-16T03:30:11.466Z,38.81
2018-03-16T03:31:15.582Z,38.80
2018-03-16T03:32:19.980Z,38.82
2018-03-16T03:33:24.166Z,38.94
2018-03-16T03:34:28.442Z,38.91
2018-03-16T03:35:32.420Z,38.87
2018-03-16T03:36:36.714Z,38.98
2018-03-16T03:37:40.488Z,38.99
2018-03-16T03:38:44.441Z,39.12
2018-03-16T03:39:48.337Z,39.15
2018-03-16T03:40:52.374Z,39.06
2018-03-16T03:41:56.607Z,39.04
2018-03-16T03:43:01.083Z,39.16
2018-03-16T03:44:05.129Z,39.09
2018-03-16T03:45:09.029Z,39.14
2018-03-16T03:46:13.193Z,38.99
2018-03-16T03:47:17.160Z,39.04
2018-03-16T03:48:21.005Z,39.11
2018-03-16T03:49:25.743Z,39.01
2018-03-16T03:50:29.831Z,38.97
2018-03-16T03:51:33.849Z,39.01
2018-03-16T03:52:37.758Z,39.04
2018-03-16T03:53:41.784Z,39.10
2018-03-16T03:54:45.894Z,39.10
2018-03-16T03:55:50.679Z,39.08
2018-03-16T03:56:54.694Z,39.16
2018-03-16T03:57:58.787Z,39.12
2018-03-16T03:59:02.740Z,39.03
2018-03-16T04:00:07.026Z,39.07
2018-03-16T04:01:11.443Z,39.04
2018-03-16T04:02:16.094Z,39.11
2018-03-16T04:03:20.491Z,39.12
2018-03-16T04:04:24.531Z,39.01
2018-03-16T04:05:28.432Z,39.04
2018-03-16T04:06:32.341Z,39.05
2018-03-16T04:07:36.491Z,39.11
2018-03-16T04:08:40.885Z,39.11
2018-03-16T04:09:44.606Z,39.10
2018-03-16T04:10:48.510Z,39.10
2018-03-16T04:11:52.307Z,39.05
2018-03-16T04:12:56.413Z,39.09
2018-03-16T04:14:00.759Z,39.09
2018-03-16T04:15:05.175Z,39.10
2018-03-16T04:16:09.194Z,39.11
2018-03-16T04:17:13.248Z,39.12
2018-03-16T04:18:17.530Z,39.09
2018-03-16T04:19:21.560Z,39.05
2018-03-16T04:20:25.552Z,39.02
2018-03-16T04:21:30.188Z,39.11
2018-03-16T04:22:34.286Z,39.11
2018-03-16T04:23:38.287Z,39.07
2018-03-16T04:24:42.621Z,38.99
2018-03-16T04:25:46.948Z,39.16
2018-03-16T04:26:51.224Z,39.15
2018-03-16T04:27:56.076Z,39.14
2018-03-16T04:29:00.000Z,39.16
2018-03-16T04:30:03.864Z,39.28
2018-03-16T04:31:08.112Z,39.20
2018-03-16T04:32:11.929Z,39.13
2018-03-16T04:33:15.733Z,39.14
2018-03-16T04:34:20.088Z,39.24
2018-03-16T04:35:24.054Z,39.28
2018-03-16T04:36:28.244Z,39.26
2018-03-16T04:37:32.164Z,39.25
2018-03-16T04:38:36.174Z,39.30
2018-03-16T04:39:40.813Z,39.30
2018-03-16T04:40:45.530Z,39.28
2018-03-16T04:41:49.451Z,39.29
2018-03-16T04:42:53.458Z,39.28
2018-03-16T04:43:57.360Z,39.26
2018-03-16T04:45:01.568Z,39.29
2018-03-16T04:46:05.487Z,39.20
2018-03-16T04:47:10.452Z,39.28
2018-03-16T04:48:14.417Z,39.25
2018-03-16T04:49:18.327Z,39.39
2018-03-16T04:50:22.264Z,39.35
2018-03-16T04:51:26.540Z,39.37
2018-03-16T04:52:30.788Z,39.42
2018-03-16T04:53:35.217Z,39.43
2018-03-16T04:54:39.623Z,39.36
2018-03-16T04:55:44.784Z,39.35
2018-03-16T04:56:48.992Z,39.30
2018-03-16T04:57:53.436Z,39.38
2018-03-16T04:58:57.804Z,39.46
2018-03-16T05:00:02.216Z,39.39
2018-03-16T05:01:06.408Z,39.51
2018-03-16T05:02:10.552Z,39.42
2018-03-16T05:03:14.964Z,39.47
2018-03-16T05:04:19.216Z,39.45
2018-03-16T05:05:23.435Z,39.55
2018-03-16T05:06:28.464Z,39.51
2018-03-16T05:07:33.036Z,39.58
2018-03-16T05:08:37.380Z,39.67
2018-03-16T05:09:41.740Z,39.68
2018-03-16T05:10:45.854Z,39.63
2018-03-16T05:11:50.017Z,39.57
2018-03-16T05:12:54.755Z,39.51
2018-03-16T05:13:59.075Z,39.54
2018-03-16T05:15:03.534Z,39.53
2018-03-16T05:16:07.880Z,39.53
2018-03-16T05:17:12.096Z,39.52
2018-03-16T05:18:16.244Z,39.52
2018-03-16T05:19:20.665Z,39.64
2018-03-16T05:20:25.135Z,39.54
2018-03-16T05:21:29.580Z,39.53
2018-03-16T05:22:33.798Z,39.49
2018-03-16T05:23:38.061Z,39.47
2018-03-16T05:24:42.352Z,39.49
2018-03-16T05:25:47.003Z,39.50
2018-03-16T05:26:51.298Z,39.58
2018-03-16T05:27:55.756Z,39.55
2018-03-16T05:28:59.941Z,39.59
2018-03-16T05:30:04.418Z,39.55
2018-03-16T05:31:08.844Z,39.80
2018-03-16T05:32:13.414Z,39.47
2018-03-16T05:33:17.771Z,39.24
2018-03-16T05:34:22.042Z,39.61
2018-03-16T05:35:26.491Z,39.95
2018-03-16T05:36:30.698Z,39.24
2018-03-16T05:37:35.032Z,39.12
2018-03-16T05:38:39.603Z,39.16
2018-03-16T05:39:43.852Z,39.20
2018-03-16T05:40:48.040Z,39.20
2018-03-16T05:41:52.269Z,39.25
2018-03-16T05:42:56.564Z,39.18
2018-03-16T05:44:00.763Z,39.27
2018-03-16T05:45:05.425Z,39.29
2018-03-16T05:46:09.896Z,39.26
2018-03-16T05:47:14.153Z,39.29
2018-03-16T05:48:18.532Z,39.30
2018-03-16T05:49:23.539Z,39.27
2018-03-16T05:50:28.921Z,39.34
2018-03-16T05:51:34.705Z,39.31
2018-03-16T05:52:38.895Z,39.38
2018-03-16T05:53:43.162Z,39.34
2018-03-16T05:54:47.359Z,39.35
2018-03-16T05:55:51.919Z,39.40
2018-03-16T05:56:56.024Z,39.44
2018-03-16T05:58:00.716Z,39.44
2018-03-16T05:59:05.092Z,39.43
2018-03-16T06:00:09.099Z,39.81
2018-03-16T06:01:13.377Z,39.62
2018-03-16T06:02:17.387Z,39.51
2018-03-16T06:03:21.833Z,39.50
2018-03-16T06:04:26.728Z,39.45
2018-03-16T06:05:30.871Z,39.51
2018-03-16T06:06:35.055Z,39.45
2018-03-16T06:07:39.365Z,39.43
2018-03-16T06:08:43.663Z,39.87
2018-03-16T06:09:47.954Z,39.71
2018-03-16T06:10:52.535Z,39.72
2018-03-16T06:11:56.799Z,39.69
2018-03-16T06:13:01.184Z,39.70
2018-03-16T06:14:05.412Z,39.64
2018-03-16T06:15:09.882Z,39.67
2018-03-16T06:16:14.349Z,39.71
2018-03-16T06:17:19.033Z,39.69
2018-03-16T06:18:23.321Z,39.69
2018-03-16T06:19:27.652Z,39.65
2018-03-16T06:20:31.816Z,39.66
2018-03-16T06:21:36.132Z,39.54
2018-03-16T06:22:40.470Z,39.46
2018-03-16T06:23:45.173Z,39.42
2018-03-16T06:24:49.241Z,39.37
2018-03-16T06:25:53.398Z,39.36
2018-03-16T06:26:57.658Z,39.29
2018-03-16T06:28:01.793Z,39.24
2018-03-16T06:29:06.895Z,39.17
2018-03-16T06:30:11.634Z,39.12
2018-03-16T06:31:16.442Z,39.05
2018-03-16T06:32:20.486Z,39.04
2018-03-16T06:33:24.882Z,39.01
2018-03-16T06:34:29.180Z,38.99
2018-03-16T06:35:33.343Z,38.95
2018-03-16T06:36:38.175Z,38.95
2018-03-16T06:37:42.294Z,38.90
2018-03-16T06:38:46.527Z,38.87
2018-03-16T06:39:50.742Z,38.86
2018-03-16T06:40:55.040Z,38.83
2018-03-16T06:41:59.616Z,38.76
2018-03-16T06:43:03.981Z,38.75
2018-03-16T06:44:08.224Z,39.32
2018-03-16T06:45:13.046Z,39.53
2018-03-16T06:46:17.196Z,39.11
2018-03-16T06:47:21.333Z,38.80
2018-03-16T06:48:25.858Z,38.66
2018-03-16T06:49:30.045Z,38.57
2018-03-16T06:50:34.869Z,38.50
2018-03-16T06:51:39.238Z,38.47
2018-03-16T06:52:43.446Z,38.42
2018-03-16T06:53:47.634Z,38.41
2018-03-16T06:54:52.223Z,38.37
2018-03-16T06:55:56.484Z,38.37
2018-03-16T06:57:00.675Z,38.33
2018-03-16T06:58:04.849Z,38.35
2018-03-16T06:59:08.983Z,38.34
2018-03-16T07:00:13.262Z,38.31
2018-03-16T07:01:18.045Z,38.31
2018-03-16T07:02:22.169Z,38.29
2018-03-16T07:03:26.442Z,38.25
2018-03-16T07:04:30.726Z,38.26
2018-03-16T07:05:34.812Z,38.24
2018-03-16T07:06:38.909Z,38.24
2018-03-16T07:07:43.660Z,38.21
2018-03-16T07:08:47.823Z,38.20
2018-03-16T07:09:52.167Z,38.16
2018-03-16T07:10:57.122Z,38.19
2018-03-16T07:12:01.503Z,38.17
2018-03-16T07:13:05.402Z,38.16
2018-03-16T07:14:10.142Z,38.13
2018-03-16T07:15:14.592Z,38.11
2018-03-16T07:16:18.845Z,38.11
2018-03-16T07:17:22.954Z,38.09
2018-03-16T07:18:26.969Z,38.07
2018-03-16T07:19:31.241Z,38.08
2018-03-16T07:20:35.879Z,38.05
2018-03-16T07:21:40.035Z,38.04
2018-03-16T07:22:44.332Z,38.05
2018-03-16T07:23:48.610Z,38.01
2018-03-16T07:24:52.905Z,38.00
2018-03-16T07:25:57.174Z,37.98
2018-03-16T07:27:01.593Z,37.96
2018-03-16T07:28:05.680Z,37.96
2018-03-16T07:29:09.767Z,39.14
2018-03-16T07:30:14.015Z,39.71
2018-03-16T07:31:18.210Z,39.44
2018-03-16T07:32:22.333Z,39.40
2018-03-16T07:33:26.993Z,39.16
2018-03-16T07:34:31.206Z,38.99
2018-03-16T07:35:35.872Z,39.08
2018-03-16T07:36:40.037Z,38.99
2018-03-16T07:37:44.077Z,39.93
2018-03-16T07:38:48.078Z,39.10
2018-03-16T07:39:52.607Z,39.00
2018-03-16T07:40:56.798Z,38.96
2018-03-16T07:42:00.926Z,38.88
2018-03-16T07:43:05.104Z,38.80
2018-03-16T07:44:09.312Z,38.75
2018-03-16T07:45:13.687Z,38.72
2018-03-16T07:46:18.001Z,38.71
2018-03-16T07:47:22.391Z,38.71
2018-03-16T07:48:26.529Z,38.72
2018-03-16T07:49:30.579Z,38.67
2018-03-16T07:50:34.624Z,38.64
2018-03-16T07:51:38.851Z,38.61
2018-03-16T07:52:43.376Z,38.58
2018-03-16T07:53:48.402Z,38.66
2018-03-16T07:54:52.498Z,38.62
2018-03-16T07:55:56.647Z,38.63
2018-03-16T07:57:00.872Z,38.59
2018-03-16T07:58:05.192Z,38.58
2018-03-16T07:59:09.452Z,38.53
2018-03-16T08:00:13.563Z,38.48
2018-03-16T08:01:17.758Z,38.46
2018-03-16T08:02:21.984Z,38.45
2018-03-16T08:03:26.136Z,38.41
2018-03-16T08:04:30.584Z,38.42
2018-03-16T08:05:34.770Z,38.39
2018-03-16T08:06:38.795Z,38.37
2018-03-16T08:07:43.014Z,38.28
2018-03-16T08:08:47.284Z,38.31
2018-03-16T08:09:51.405Z,38.31
2018-03-16T08:10:56.188Z,38.28
2018-03-16T08:12:00.417Z,39.16
2018-03-16T08:13:04.527Z,39.05
2018-03-16T08:14:08.722Z,38.58
2018-03-16T08:15:12.888Z,38.35
2018-03-16T08:16:17.109Z,38.32
2018-03-16T08:17:21.561Z,38.44
2018-03-16T08:18:25.622Z,38.30
2018-03-16T08:19:29.701Z,38.24
2018-03-16T08:20:33.876Z,38.48
2018-03-16T08:21:37.922Z,38.50
2018-03-16T08:22:42.248Z,38.23
2018-03-16T08:23:46.926Z,38.38
2018-03-16T08:24:51.288Z,38.43
2018-03-16T08:25:55.558Z,38.32
2018-03-16T08:26:59.689Z,38.21
2018-03-16T08:28:04.053Z,38.10
2018-03-16T08:29:08.263Z,38.23
2018-03-16T08:30:12.778Z,38.23
2018-03-16T08:31:16.826Z,38.27
2018-03-16T08:32:21.135Z,38.15
2018-03-16T08:33:25.182Z,38.34
2018-03-16T08:34:29.214Z,38.29
2018-03-16T08:35:33.375Z,38.31
2018-03-16T08:36:37.920Z,38.35
2018-03-16T08:37:42.126Z,38.31
2018-03-16T08:38:46.337Z,38.09
2018-03-16T08:39:50.593Z,38.26
2018-03-16T08:40:54.609Z,38.27
2018-03-16T08:42:00.034Z,38.33
2018-03-16T08:43:04.797Z,38.10
2018-03-16T08:44:08.917Z,38.14
2018-03-16T08:45:14.614Z,38.17
2018-03-16T08:46:18.719Z,38.12
2018-03-16T08:47:22.865Z,38.21
2018-03-16T08:48:27.560Z,38.17
2018-03-16T08:49:32.168Z,38.17
2018-03-16T08:50:36.336Z,37.99
2018-03-16T08:51:40.347Z,38.45
2018-03-16T08:52:44.445Z,39.42
2018-03-16T08:53:49.950Z,39.39
2018-03-16T08:54:54.042Z,39.94
2018-03-16T08:55:58.563Z,42.17
2018-03-16T08:57:02.708Z,40.45
2018-03-16T08:58:06.800Z,40.79
2018-03-16T08:59:10.928Z,40.56
2018-03-16T09:00:15.024Z,40.60
2018-03-16T09:01:19.972Z,40.60
2018-03-16T09:02:24.626Z,40.36
2018-03-16T09:03:28.746Z,40.73
2018-03-16T09:04:33.668Z,40.48
2018-03-16T09:05:37.840Z,40.52
2018-03-16T09:06:41.855Z,40.41
2018-03-16T09:07:45.951Z,40.12
2018-03-16T09:08:50.440Z,40.19
2018-03-16T09:09:54.540Z,40.09
2018-03-16T09:10:58.740Z,40.01
2018-03-16T09:12:02.731Z,39.80
2018-03-16T09:13:06.831Z,39.85
2018-03-16T09:14:10.942Z,39.79
2018-03-16T09:15:15.636Z,39.70
2018-03-16T09:16:19.687Z,39.66
2018-03-16T09:17:23.769Z,39.53
2018-03-16T09:18:28.140Z,39.54
2018-03-16T09:19:32.219Z,39.51
2018-03-16T09:20:36.331Z,39.38
2018-03-16T09:21:40.841Z,39.37
2018-03-16T09:22:44.853Z,39.28
2018-03-16T09:23:49.124Z,39.26
2018-03-16T09:24:53.218Z,39.27
2018-03-16T09:25:57.311Z,39.24
2018-03-16T09:27:01.526Z,39.16
2018-03-16T09:28:06.192Z,39.11
2018-03-16T09:29:10.281Z,39.05
2018-03-16T09:30:14.511Z,39.09
2018-03-16T09:31:18.648Z,39.07
2018-03-16T09:32:22.844Z,39.08
2018-03-16T09:33:26.807Z,39.00
2018-03-16T09:34:31.355Z,38.87
2018-03-16T09:35:35.622Z,38.94
2018-03-16T09:36:39.748Z,38.79
2018-03-16T09:37:43.817Z,38.94
2018-03-16T09:38:47.921Z,38.94
2018-03-16T09:39:51.979Z,38.83
2018-03-16T09:40:56.401Z,38.83
2018-03-16T09:42:00.444Z,38.80
2018-03-16T09:43:04.523Z,38.65
2018-03-16T09:44:08.603Z,38.72
2018-03-16T09:45:12.814Z,38.70
2018-03-16T09:46:16.897Z,38.61
2018-03-16T09:47:21.268Z,38.60
2018-03-16T09:48:25.376Z,38.62
2018-03-16T09:49:29.550Z,38.60
2018-03-16T09:50:33.709Z,38.50
2018-03-16T09:51:37.764Z,38.53
2018-03-16T09:52:41.947Z,38.53
2018-03-16T09:53:46.293Z,38.51
2018-03-16T09:54:50.449Z,38.50
2018-03-16T09:55:54.596Z,38.48
2018-03-16T09:56:58.802Z,38.38
2018-03-16T09:58:02.925Z,38.24
2018-03-16T09:59:07.344Z,38.37
2018-03-16T10:00:12.083Z,38.36
2018-03-16T10:01:16.226Z,38.23
2018-03-16T10:02:20.367Z,38.33
2018-03-16T10:03:24.540Z,38.26
2018-03-16T10:04:28.703Z,38.26
2018-03-16T10:05:32.847Z,38.27
2018-03-16T10:06:37.321Z,38.22
2018-03-16T10:07:41.375Z,38.23
2018-03-16T10:08:45.503Z,38.25
2018-03-16T10:09:49.637Z,38.17
2018-03-16T10:10:53.703Z,38.18
2018-03-16T10:11:57.893Z,38.13
2018-03-16T10:13:02.332Z,38.18
2018-03-16T10:14:06.556Z,38.19
2018-03-16T10:15:10.686Z,38.21
2018-03-16T10:16:14.822Z,38.14
2018-03-16T10:17:18.935Z,38.15
2018-03-16T10:18:22.958Z,38.14
2018-03-16T10:19:27.308Z,38.10
2018-03-16T10:20:31.447Z,38.13
2018-03-16T10:21:35.528Z,38.13
2018-03-16T10:22:39.626Z,38.09
2018-03-16T10:23:43.694Z,38.06
2018-03-16T10:24:47.837Z,38.08
2018-03-16T10:25:52.181Z,38.05
2018-03-16T10:26:56.456Z,37.96
2018-03-16T10:28:00.475Z,37.95
2018-03-16T10:29:04.772Z,37.99
2018-03-16T10:30:08.816Z,37.98
2018-03-16T10:31:12.917Z,37.93
2018-03-16T10:32:17.419Z,37.95
2018-03-16T10:33:21.578Z,37.92
2018-03-16T10:34:25.605Z,37.92
2018-03-16T10:35:29.586Z,37.97
2018-03-16T10:36:33.674Z,37.88
2018-03-16T10:37:37.634Z,37.87
2018-03-16T10:38:42.014Z,37.88
2018-03-16T10:39:46.075Z,37.88
2018-03-16T10:40:50.001Z,37.92
2018-03-16T10:41:53.941Z,37.83
2018-03-16T10:42:57.865Z,37.79
2018-03-16T10:44:01.907Z,37.80
2018-03-16T10:45:05.903Z,37.76
2018-03-16T10:46:09.830Z,37.81
2018-03-16T10:47:13.790Z,37.87
2018-03-16T10:48:17.846Z,37.85
2018-03-16T10:49:22.057Z,37.87
2018-03-16T10:50:26.565Z,37.81
2018-03-16T10:51:30.439Z,37.71
2018-03-16T10:52:34.512Z,37.80
2018-03-16T10:53:38.587Z,37.73
2018-03-16T10:54:42.589Z,37.84
2018-03-16T10:55:46.576Z,37.88
2018-03-16T10:56:51.034Z,37.88
2018-03-16T10:57:55.188Z,37.82
2018-03-16T10:58:59.200Z,37.88
2018-03-16T11:00:03.243Z,37.79
2018-03-16T11:01:11.136Z,37.70
2018-03-16T11:02:19.166Z,37.67
2018-03-16T11:03:23.396Z,37.66
2018-03-16T11:04:30.288Z,37.66
2018-03-16T11:05:38.270Z,37.79
2018-03-16T11:06:46.107Z,37.76
2018-03-16T11:07:54.145Z,37.76
2018-03-16T11:08:58.292Z,37.73
2018-03-16T11:10:02.308Z,37.73
2018-03-16T11:11:06.292Z,37.69
2018-03-16T11:12:10.308Z,37.73
2018-03-16T11:13:14.402Z,37.68
2018-03-16T11:14:18.654Z,37.68
2018-03-16T11:15:22.685Z,37.64
2018-03-16T11:16:26.781Z,37.60
2018-03-16T11:17:30.809Z,37.62
2018-03-16T11:18:34.768Z,37.55
2018-03-16T11:19:38.811Z,37.57
2018-03-16T11:20:43.189Z,37.59
2018-03-16T11:21:47.191Z,37.55
2018-03-16T11:22:51.137Z,37.55
2018-03-16T11:23:55.255Z,37.57
2018-03-16T11:24:59.289Z,37.56
2018-03-16T11:26:03.289Z,37.55
2018-03-16T11:27:07.644Z,37.54
2018-03-16T11:28:11.614Z,37.56
2018-03-16T11:29:15.580Z,37.51
2018-03-16T11:30:19.711Z,37.54
2018-03-16T11:31:23.620Z,37.58
2018-03-16T11:32:27.594Z,37.52
2018-03-16T11:33:32.279Z,37.51
2018-03-16T11:34:36.437Z,37.49
2018-03-16T11:35:40.360Z,37.42
2018-03-16T11:36:44.239Z,37.46
2018-03-16T11:37:49.156Z,37.45
2018-03-16T11:38:53.094Z,37.46
2018-03-16T11:39:57.445Z,37.45
2018-03-16T11:41:01.511Z,37.41
2018-03-16T11:42:05.468Z,37.45
2018-03-16T11:43:09.514Z,37.42
2018-03-16T11:44:13.485Z,37.40
2018-03-16T11:45:17.617Z,37.47
2018-03-16T11:46:22.361Z,37.41
2018-03-16T11:47:26.249Z,37.46
2018-03-16T11:48:30.225Z,37.38
2018-03-16T11:49:34.249Z,37.42
2018-03-16T11:50:38.417Z,37.44
2018-03-16T11:51:42.489Z,37.37
2018-03-16T11:52:47.083Z,37.40
2018-03-16T11:53:51.739Z,37.40
2018-03-16T11:54:56.800Z,37.41
2018-03-16T11:56:00.710Z,37.44
2018-03-16T11:57:04.657Z,37.41
2018-03-16T11:58:09.845Z,37.47
2018-03-16T11:59:13.668Z,37.43
2018-03-16T12:00:17.568Z,37.51
2018-03-16T12:01:21.615Z,37.45
2018-03-16T12:02:25.489Z,37.43
2018-03-16T12:03:32.701Z,37.43
2018-03-16T12:04:37.027Z,37.43
2018-03-16T12:05:40.877Z,37.43
2018-03-16T12:06:44.862Z,37.42
2018-03-16T12:07:48.883Z,37.41
2018-03-16T12:08:52.888Z,37.40
2018-03-16T12:09:56.930Z,37.37
2018-03-16T12:11:02.146Z,37.38
2018-03-16T12:12:06.255Z,37.37
2018-03-16T12:13:10.156Z,37.34
2018-03-16T12:14:14.071Z,37.35
2018-03-16T12:15:18.088Z,37.33
2018-03-16T12:16:22.112Z,37.34
2018-03-16T12:17:26.519Z,37.34
2018-03-16T12:18:30.467Z,37.30
2018-03-16T12:19:34.270Z,37.30
2018-03-16T12:20:38.213Z,37.29
2018-03-16T12:21:42.249Z,37.27
2018-03-16T12:22:46.275Z,37.29
2018-03-16T12:23:50.189Z,37.28
2018-03-16T12:24:54.037Z,37.26
2018-03-16T12:25:57.980Z,37.27
2018-03-16T12:27:01.985Z,37.27
2018-03-16T12:28:05.837Z,37.27
2018-03-16T12:29:10.037Z,37.26
2018-03-16T12:30:13.797Z,37.25
2018-03-16T12:31:17.700Z,37.23
2018-03-16T12:32:21.547Z,37.23
2018-03-16T12:33:25.414Z,37.19
2018-03-16T12:34:29.294Z,37.18
2018-03-16T12:35:33.476Z,37.21
2018-03-16T12:36:37.394Z,37.20
2018-03-16T12:37:41.425Z,37.16
2018-03-16T12:38:45.296Z,37.16
2018-03-16T12:39:49.263Z,37.18
2018-03-16T12:40:53.199Z,37.20
2018-03-16T12:41:57.551Z,37.16
2018-03-16T12:43:01.450Z,37.12
2018-03-16T12:44:05.458Z,37.14
2018-03-16T12:45:09.464Z,37.16
2018-03-16T12:46:13.535Z,37.14
2018-03-16T12:47:17.810Z,37.13
2018-03-16T12:48:22.174Z,37.14
2018-03-16T12:49:26.179Z,37.17
2018-03-16T12:50:30.084Z,37.14
2018-03-16T12:51:42.055Z,37.15
2018-03-16T12:52:38.182Z,37.11
2018-03-16T12:53:42.104Z,37.11
2018-03-16T12:54:46.398Z,37.10
2018-03-16T12:55:50.321Z,37.09
2018-03-16T12:56:54.373Z,37.04
2018-03-16T12:57:58.306Z,37.04
2018-03-16T12:59:02.167Z,37.04
2018-03-16T13:00:06.155Z,37.07
2018-03-16T13:01:09.961Z,37.05
2018-03-16T13:02:13.827Z,37.04
2018-03-16T13:03:18.074Z,37.02
2018-03-16T13:04:22.009Z,37.04
2018-03-16T13:05:25.854Z,37.03
2018-03-16T13:06:30.045Z,37.01
2018-03-16T13:07:34.000Z,37.00
2018-03-16T13:10:55.403Z,37.00
2018-03-16T13:11:59.392Z,37.01
2018-03-16T13:13:03.432Z,37.00
2018-03-16T13:14:07.875Z,36.96
2018-03-16T13:15:11.857Z,36.94
2018-03-16T13:16:15.813Z,36.94
2018-03-16T13:17:19.893Z,36.93
2018-03-16T13:18:24.407Z,36.93
2018-03-16T13:19:28.472Z,36.92
2018-03-16T13:20:32.438Z,36.91
2018-03-16T13:21:36.249Z,36.95
2018-03-16T13:22:40.090Z,36.94
2018-03-16T13:23:44.086Z,36.93
2018-03-16T13:24:48.188Z,36.93
2018-03-16T13:25:52.196Z,36.89
2018-03-16T13:26:56.186Z,36.92
2018-03-16T13:28:00.096Z,36.92
2018-03-16T13:29:04.044Z,36.90
2018-03-16T13:30:08.178Z,36.88
2018-03-16T13:31:12.442Z,36.88
2018-03-16T13:32:16.281Z,36.86
2018-03-16T13:33:20.201Z,36.83
2018-03-16T13:34:24.116Z,36.88
2018-03-16T13:35:27.989Z,36.87
2018-03-16T13:36:31.884Z,36.87
2018-03-16T13:37:36.103Z,36.88
2018-03-16T13:38:40.068Z,36.85
2018-03-16T13:39:43.972Z,36.83
2018-03-16T13:40:48.927Z,36.81
2018-03-16T13:41:52.720Z,36.81
2018-03-16T13:42:56.600Z,36.83
2018-03-16T13:44:01.677Z,36.83
2018-03-16T13:45:05.568Z,36.81
2018-03-16T13:46:09.361Z,36.82
2018-03-16T13:47:13.346Z,36.79
2018-03-16T13:48:17.211Z,36.79
2018-03-16T13:49:21.244Z,36.82